sensor_id;sensor_type;location;lat;lon;timestamp;temperature;humidity
5128;DHT22;2582;48.770;9.190;2023-04-23T00:01:34;16.50;99.90
5128;DHT22;2582;48.770;9.190;2023-04-23T00:04:05;16.70;99.90
5128;DHT22;2582;48.770;9.190;2023-04-23T00:06:32;16.50;99.90
5128;DHT22;2582;48.770;9.190;2023-04-23T00:09:00;16.50;99.90
5128;DHT22;2582;48.770;9.190;2023-04-23T00:11:26;16.50;99.90
5128;DHT22;2582;48.770;9.190;2023-04-23T00:13:52;16.40;99.90
5128;DHT22;2582;48.770;9.190;2023-04-23T00:16:19;16.50;99.90
5128;DHT22;2582;48.770;9.190;2023-04-23T00:18:44;16.40;99.90
5128;DHT22;2582;48.770;9.190;2023-04-23T00:21:10;16.20;99.90
5128;DHT22;2582;48.770;9.190;2023-04-23T00:23:37;16.10;99.90
5128;DHT22;2582;48.770;9.190;2023-04-23T00:26:03;16.00;99.90
5128;DHT22;2582;48.770;9.190;2023-04-23T00:28:29;16.00;99.90
5128;DHT22;2582;48.770;9.190;2023-04-23T00:30:54;16.10;99.90
5128;DHT22;2582;48.770;9.190;2023-04-23T00:33:20;16.10;99.90
5128;DHT22;2582;48.770;9.190;2023-04-23T00:35:45;16.00;99.90
5128;DHT22;2582;48.770;9.190;2023-04-23T00:38:11;16.00;99.90
5128;DHT22;2582;48.770;9.190;2023-04-23T00:40:36;15.90;99.90
5128;DHT22;2582;48.770;9.190;2023-04-23T00:43:03;15.90;99.90
5128;DHT22;2582;48.770;9.190;2023-04-23T00:45:29;16.10;99.90
5128;DHT22;2582;48.770;9.190;2023-04-23T00:47:55;16.00;99.90
5128;DHT22;2582;48.770;9.190;2023-04-23T00:50:21;16.10;99.90
5128;DHT22;2582;48.770;9.190;2023-04-23T00:52:46;15.90;99.90
5128;DHT22;2582;48.770;9.190;2023-04-23T00:55:12;15.80;99.90
5128;DHT22;2582;48.770;9.190;2023-04-23T00:57:38;15.70;99.90
5128;DHT22;2582;48.770;9.190;2023-04-23T01:00:05;15.90;99.90
5128;DHT22;2582;48.770;9.190;2023-04-23T01:02:31;16.00;99.90
5128;DHT22;2582;48.770;9.190;2023-04-23T01:04:59;15.80;99.90
5128;DHT22;2582;48.770;9.190;2023-04-23T01:07:26;15.70;99.90
5128;DHT22;2582;48.770;9.190;2023-04-23T01:09:52;15.70;99.90
5128;DHT22;2582;48.770;9.190;2023-04-23T01:12:18;15.90;99.90
5128;DHT22;2582;48.770;9.190;2023-04-23T01:14:44;16.00;99.90
5128;DHT22;2582;48.770;9.190;2023-04-23T01:17:10;16.10;99.90
5128;DHT22;2582;48.770;9.190;2023-04-23T01:19:39;16.10;99.90
5128;DHT22;2582;48.770;9.190;2023-04-23T01:22:11;16.00;99.90
5128;DHT22;2582;48.770;9.190;2023-04-23T01:24:38;16.00;99.90
5128;DHT22;2582;48.770;9.190;2023-04-23T01:27:04;15.90;99.90
5128;DHT22;2582;48.770;9.190;2023-04-23T01:29:31;16.00;99.90
5128;DHT22;2582;48.770;9.190;2023-04-23T01:31:57;16.10;99.90
5128;DHT22;2582;48.770;9.190;2023-04-23T01:34:23;16.00;99.90
5128;DHT22;2582;48.770;9.190;2023-04-23T01:36:50;16.00;99.90
5128;DHT22;2582;48.770;9.190;2023-04-23T01:39:16;15.90;99.90
5128;DHT22;2582;48.770;9.190;2023-04-23T01:41:42;16.00;99.90
5128;DHT22;2582;48.770;9.190;2023-04-23T01:44:08;16.00;99.90
5128;DHT22;2582;48.770;9.190;2023-04-23T01:46:34;16.00;99.90
5128;DHT22;2582;48.770;9.190;2023-04-23T01:48:59;16.10;99.90
5128;DHT22;2582;48.770;9.190;2023-04-23T01:51:25;16.10;99.90
5128;DHT22;2582;48.770;9.190;2023-04-23T01:53:51;16.00;99.90
5128;DHT22;2582;48.770;9.190;2023-04-23T01:56:19;15.90;99.90
5128;DHT22;2582;48.770;9.190;2023-04-23T01:58:46;15.50;99.90
5128;DHT22;2582;48.770;9.190;2023-04-23T02:01:12;15.30;99.90
5128;DHT22;2582;48.770;9.190;2023-04-23T02:03:37;15.30;99.90
5128;DHT22;2582;48.770;9.190;2023-04-23T02:06:03;15.60;99.90
5128;DHT22;2582;48.770;9.190;2023-04-23T02:08:29;15.50;99.90
5128;DHT22;2582;48.770;9.190;2023-04-23T02:10:55;15.40;99.90
5128;DHT22;2582;48.770;9.190;2023-04-23T02:13:21;15.40;99.90
5128;DHT22;2582;48.770;9.190;2023-04-23T02:15:47;15.50;99.90
5128;DHT22;2582;48.770;9.190;2023-04-23T02:18:12;15.70;99.90
5128;DHT22;2582;48.770;9.190;2023-04-23T02:20:38;15.70;99.90
5128;DHT22;2582;48.770;9.190;2023-04-23T02:23:06;15.80;99.90
5128;DHT22;2582;48.770;9.190;2023-04-23T02:25:32;15.90;99.90
5128;DHT22;2582;48.770;9.190;2023-04-23T02:27:58;15.80;99.90
5128;DHT22;2582;48.770;9.190;2023-04-23T02:30:26;15.70;99.90
5128;DHT22;2582;48.770;9.190;2023-04-23T02:32:51;15.70;99.90
5128;DHT22;2582;48.770;9.190;2023-04-23T02:35:17;15.70;99.90
5128;DHT22;2582;48.770;9.190;2023-04-23T02:37:43;15.60;99.90
5128;DHT22;2582;48.770;9.190;2023-04-23T02:40:09;15.50;99.90
5128;DHT22;2582;48.770;9.190;2023-04-23T02:42:34;15.50;99.90
5128;DHT22;2582;48.770;9.190;2023-04-23T02:45:00;15.30;99.90
5128;DHT22;2582;48.770;9.190;2023-04-23T02:47:25;15.30;99.90
5128;DHT22;2582;48.770;9.190;2023-04-23T02:49:51;15.30;99.90
5128;DHT22;2582;48.770;9.190;2023-04-23T02:52:17;15.30;99.90
5128;DHT22;2582;48.770;9.190;2023-04-23T02:54:42;15.20;99.90
5128;DHT22;2582;48.770;9.190;2023-04-23T02:57:08;15.20;99.90
5128;DHT22;2582;48.770;9.190;2023-04-23T02:59:33;15.00;99.90
5128;DHT22;2582;48.770;9.190;2023-04-23T03:01:59;14.80;99.90
5128;DHT22;2582;48.770;9.190;2023-04-23T03:04:25;14.70;99.90
5128;DHT22;2582;48.770;9.190;2023-04-23T03:06:51;14.60;99.90
5128;DHT22;2582;48.770;9.190;2023-04-23T03:09:16;14.60;99.90
5128;DHT22;2582;48.770;9.190;2023-04-23T03:11:42;14.50;99.90
5128;DHT22;2582;48.770;9.190;2023-04-23T03:14:08;14.60;99.90
5128;DHT22;2582;48.770;9.190;2023-04-23T03:16:33;14.50;99.90
5128;DHT22;2582;48.770;9.190;2023-04-23T03:18:59;14.40;99.90
5128;DHT22;2582;48.770;9.190;2023-04-23T03:21:25;14.50;99.90
5128;DHT22;2582;48.770;9.190;2023-04-23T03:23:51;14.50;99.90
5128;DHT22;2582;48.770;9.190;2023-04-23T03:26:17;14.50;99.90
5128;DHT22;2582;48.770;9.190;2023-04-23T03:28:42;14.40;99.90
5128;DHT22;2582;48.770;9.190;2023-04-23T03:31:08;14.40;99.90
5128;DHT22;2582;48.770;9.190;2023-04-23T03:33:33;14.50;99.90
5128;DHT22;2582;48.770;9.190;2023-04-23T03:35:59;14.50;99.90
5128;DHT22;2582;48.770;9.190;2023-04-23T03:38:25;14.50;99.90
5128;DHT22;2582;48.770;9.190;2023-04-23T03:40:51;14.60;99.90
5128;DHT22;2582;48.770;9.190;2023-04-23T03:43:17;14.60;99.90
5128;DHT22;2582;48.770;9.190;2023-04-23T03:45:42;14.50;99.90
5128;DHT22;2582;48.770;9.190;2023-04-23T03:48:08;14.50;99.90
5128;DHT22;2582;48.770;9.190;2023-04-23T03:50:33;14.50;99.90
5128;DHT22;2582;48.770;9.190;2023-04-23T03:53:03;14.50;99.90
5128;DHT22;2582;48.770;9.190;2023-04-23T03:55:29;14.40;99.90
5128;DHT22;2582;48.770;9.190;2023-04-23T03:57:54;14.40;99.90
5128;DHT22;2582;48.770;9.190;2023-04-23T04:00:20;14.40;99.90
5128;DHT22;2582;48.770;9.190;2023-04-23T04:02:46;14.40;99.90
5128;DHT22;2582;48.770;9.190;2023-04-23T04:05:11;14.30;99.90
5128;DHT22;2582;48.770;9.190;2023-04-23T04:07:37;14.20;99.90
5128;DHT22;2582;48.770;9.190;2023-04-23T04:10:04;14.20;99.90
5128;DHT22;2582;48.770;9.190;2023-04-23T04:12:30;14.20;99.90
5128;DHT22;2582;48.770;9.190;2023-04-23T04:14:55;14.20;99.90
5128;DHT22;2582;48.770;9.190;2023-04-23T04:17:21;14.20;99.90
5128;DHT22;2582;48.770;9.190;2023-04-23T04:19:47;14.30;99.90
5128;DHT22;2582;48.770;9.190;2023-04-23T04:22:13;14.40;99.90
5128;DHT22;2582;48.770;9.190;2023-04-23T04:24:38;14.30;99.90
5128;DHT22;2582;48.770;9.190;2023-04-23T04:27:06;14.30;99.90
5128;DHT22;2582;48.770;9.190;2023-04-23T04:29:31;14.30;99.90
5128;DHT22;2582;48.770;9.190;2023-04-23T04:31:57;14.20;99.90
5128;DHT22;2582;48.770;9.190;2023-04-23T04:34:24;14.10;99.90
5128;DHT22;2582;48.770;9.190;2023-04-23T04:36:49;14.00;99.90
5128;DHT22;2582;48.770;9.190;2023-04-23T04:39:18;14.00;99.90
5128;DHT22;2582;48.770;9.190;2023-04-23T04:41:44;14.00;99.90
5128;DHT22;2582;48.770;9.190;2023-04-23T04:44:09;14.00;99.90
5128;DHT22;2582;48.770;9.190;2023-04-23T04:46:35;13.90;99.90
5128;DHT22;2582;48.770;9.190;2023-04-23T04:49:07;13.90;99.90
5128;DHT22;2582;48.770;9.190;2023-04-23T04:51:33;13.80;99.90
5128;DHT22;2582;48.770;9.190;2023-04-23T04:53:59;13.80;99.90
5128;DHT22;2582;48.770;9.190;2023-04-23T04:56:25;13.70;99.90
5128;DHT22;2582;48.770;9.190;2023-04-23T04:58:50;13.70;99.90
5128;DHT22;2582;48.770;9.190;2023-04-23T05:01:17;13.80;99.90
5128;DHT22;2582;48.770;9.190;2023-04-23T05:03:43;13.70;99.90
5128;DHT22;2582;48.770;9.190;2023-04-23T05:06:08;13.70;99.90
5128;DHT22;2582;48.770;9.190;2023-04-23T05:08:34;13.70;99.90
5128;DHT22;2582;48.770;9.190;2023-04-23T05:11:00;13.90;99.90
5128;DHT22;2582;48.770;9.190;2023-04-23T05:13:26;14.00;99.90
5128;DHT22;2582;48.770;9.190;2023-04-23T05:15:52;14.10;99.90
5128;DHT22;2582;48.770;9.190;2023-04-23T05:18:17;14.00;99.90
5128;DHT22;2582;48.770;9.190;2023-04-23T05:20:43;14.10;99.90
5128;DHT22;2582;48.770;9.190;2023-04-23T05:23:09;14.20;99.90
5128;DHT22;2582;48.770;9.190;2023-04-23T05:25:35;14.20;99.90
5128;DHT22;2582;48.770;9.190;2023-04-23T05:28:01;14.20;99.90
5128;DHT22;2582;48.770;9.190;2023-04-23T05:30:26;14.30;99.90
5128;DHT22;2582;48.770;9.190;2023-04-23T05:32:52;14.50;99.90
5128;DHT22;2582;48.770;9.190;2023-04-23T05:35:17;14.60;99.90
5128;DHT22;2582;48.770;9.190;2023-04-23T05:37:43;14.80;99.90
5128;DHT22;2582;48.770;9.190;2023-04-23T05:40:09;15.00;99.90
5128;DHT22;2582;48.770;9.190;2023-04-23T05:42:35;15.00;99.90
5128;DHT22;2582;48.770;9.190;2023-04-23T05:45:01;15.10;99.90
5128;DHT22;2582;48.770;9.190;2023-04-23T05:47:28;15.10;99.90
5128;DHT22;2582;48.770;9.190;2023-04-23T05:49:54;15.20;99.90
5128;DHT22;2582;48.770;9.190;2023-04-23T05:52:21;15.20;99.90
5128;DHT22;2582;48.770;9.190;2023-04-23T05:54:47;15.20;99.90
5128;DHT22;2582;48.770;9.190;2023-04-23T05:57:12;15.30;99.90
5128;DHT22;2582;48.770;9.190;2023-04-23T05:59:38;15.30;99.90
5128;DHT22;2582;48.770;9.190;2023-04-23T06:02:04;15.30;99.90
5128;DHT22;2582;48.770;9.190;2023-04-23T06:04:29;15.40;99.90
5128;DHT22;2582;48.770;9.190;2023-04-23T06:06:55;15.50;99.90
5128;DHT22;2582;48.770;9.190;2023-04-23T06:09:20;15.70;99.90
5128;DHT22;2582;48.770;9.190;2023-04-23T06:11:46;15.90;99.90
5128;DHT22;2582;48.770;9.190;2023-04-23T06:14:15;16.00;99.90
5128;DHT22;2582;48.770;9.190;2023-04-23T06:16:40;16.00;99.90
5128;DHT22;2582;48.770;9.190;2023-04-23T06:19:06;16.00;99.90
5128;DHT22;2582;48.770;9.190;2023-04-23T06:21:31;15.90;99.90
5128;DHT22;2582;48.770;9.190;2023-04-23T06:23:57;15.90;99.90
5128;DHT22;2582;48.770;9.190;2023-04-23T06:26:22;16.00;99.90
5128;DHT22;2582;48.770;9.190;2023-04-23T06:28:48;16.20;99.90
5128;DHT22;2582;48.770;9.190;2023-04-23T06:31:14;16.10;99.90
5128;DHT22;2582;48.770;9.190;2023-04-23T06:33:39;16.00;99.90
5128;DHT22;2582;48.770;9.190;2023-04-23T06:36:06;16.00;99.90
5128;DHT22;2582;48.770;9.190;2023-04-23T06:38:35;15.90;99.90
5128;DHT22;2582;48.770;9.190;2023-04-23T06:41:02;15.90;99.90
5128;DHT22;2582;48.770;9.190;2023-04-23T06:43:28;15.90;99.90
5128;DHT22;2582;48.770;9.190;2023-04-23T06:45:53;15.80;99.90
5128;DHT22;2582;48.770;9.190;2023-04-23T06:48:19;15.70;99.90
5128;DHT22;2582;48.770;9.190;2023-04-23T06:50:46;15.80;99.90
5128;DHT22;2582;48.770;9.190;2023-04-23T06:53:13;15.70;99.90
5128;DHT22;2582;48.770;9.190;2023-04-23T06:55:38;15.60;99.90
5128;DHT22;2582;48.770;9.190;2023-04-23T06:58:04;15.70;99.90
5128;DHT22;2582;48.770;9.190;2023-04-23T07:00:32;15.60;99.90
5128;DHT22;2582;48.770;9.190;2023-04-23T07:02:57;15.60;99.90
5128;DHT22;2582;48.770;9.190;2023-04-23T07:05:23;15.80;99.90
5128;DHT22;2582;48.770;9.190;2023-04-23T07:07:48;16.00;99.90
5128;DHT22;2582;48.770;9.190;2023-04-23T07:10:14;16.10;99.90
5128;DHT22;2582;48.770;9.190;2023-04-23T07:12:40;16.30;99.90
5128;DHT22;2582;48.770;9.190;2023-04-23T07:15:06;16.50;99.90
5128;DHT22;2582;48.770;9.190;2023-04-23T07:17:32;16.80;99.90
5128;DHT22;2582;48.770;9.190;2023-04-23T07:19:57;17.10;99.90
5128;DHT22;2582;48.770;9.190;2023-04-23T07:22:24;17.10;99.90
5128;DHT22;2582;48.770;9.190;2023-04-23T07:24:51;17.00;99.90
5128;DHT22;2582;48.770;9.190;2023-04-23T07:27:17;16.90;99.90
5128;DHT22;2582;48.770;9.190;2023-04-23T07:29:43;17.00;99.90
5128;DHT22;2582;48.770;9.190;2023-04-23T07:32:08;16.90;99.90
5128;DHT22;2582;48.770;9.190;2023-04-23T07:34:34;16.90;99.90
5128;DHT22;2582;48.770;9.190;2023-04-23T07:37:01;16.70;99.90
5128;DHT22;2582;48.770;9.190;2023-04-23T07:39:27;16.80;99.90
5128;DHT22;2582;48.770;9.190;2023-04-23T07:41:52;17.00;99.90
5128;DHT22;2582;48.770;9.190;2023-04-23T07:44:18;17.10;99.90
5128;DHT22;2582;48.770;9.190;2023-04-23T07:46:44;17.10;99.90
5128;DHT22;2582;48.770;9.190;2023-04-23T07:49:09;17.50;99.90
5128;DHT22;2582;48.770;9.190;2023-04-23T07:51:35;17.60;99.90
5128;DHT22;2582;48.770;9.190;2023-04-23T07:54:00;17.50;99.90
5128;DHT22;2582;48.770;9.190;2023-04-23T07:56:26;17.50;99.90
5128;DHT22;2582;48.770;9.190;2023-04-23T07:58:52;17.40;99.90
5128;DHT22;2582;48.770;9.190;2023-04-23T08:01:22;17.50;99.90
5128;DHT22;2582;48.770;9.190;2023-04-23T08:03:48;17.50;99.90
5128;DHT22;2582;48.770;9.190;2023-04-23T08:06:13;17.50;99.90
5128;DHT22;2582;48.770;9.190;2023-04-23T08:08:39;17.50;99.90
5128;DHT22;2582;48.770;9.190;2023-04-23T08:11:05;17.90;99.90
5128;DHT22;2582;48.770;9.190;2023-04-23T08:13:32;17.50;99.90
5128;DHT22;2582;48.770;9.190;2023-04-23T08:15:57;17.50;99.90
5128;DHT22;2582;48.770;9.190;2023-04-23T08:18:23;17.10;99.90
5128;DHT22;2582;48.770;9.190;2023-04-23T08:20:49;17.10;99.90
5128;DHT22;2582;48.770;9.190;2023-04-23T08:23:15;17.00;99.90
5128;DHT22;2582;48.770;9.190;2023-04-23T08:25:41;17.40;99.90
5128;DHT22;2582;48.770;9.190;2023-04-23T08:28:07;17.70;99.90
5128;DHT22;2582;48.770;9.190;2023-04-23T08:30:32;18.10;99.90
5128;DHT22;2582;48.770;9.190;2023-04-23T08:32:58;18.50;99.90
5128;DHT22;2582;48.770;9.190;2023-04-23T08:35:24;18.50;99.90
5128;DHT22;2582;48.770;9.190;2023-04-23T08:37:49;18.30;99.90
5128;DHT22;2582;48.770;9.190;2023-04-23T08:40:15;18.30;99.90
5128;DHT22;2582;48.770;9.190;2023-04-23T08:42:52;18.30;99.90
5128;DHT22;2582;48.770;9.190;2023-04-23T08:45:20;18.20;99.90
5128;DHT22;2582;48.770;9.190;2023-04-23T08:47:46;18.20;99.90
5128;DHT22;2582;48.770;9.190;2023-04-23T08:50:17;18.20;99.90
5128;DHT22;2582;48.770;9.190;2023-04-23T08:52:52;18.50;99.90
5128;DHT22;2582;48.770;9.190;2023-04-23T08:55:18;18.20;99.90
5128;DHT22;2582;48.770;9.190;2023-04-23T08:57:45;18.20;99.90
5128;DHT22;2582;48.770;9.190;2023-04-23T09:00:12;18.40;99.90
5128;DHT22;2582;48.770;9.190;2023-04-23T09:02:39;18.40;99.90
5128;DHT22;2582;48.770;9.190;2023-04-23T09:05:06;18.50;99.90
5128;DHT22;2582;48.770;9.190;2023-04-23T09:07:33;18.70;99.90
5128;DHT22;2582;48.770;9.190;2023-04-23T09:09:59;18.80;99.90
5128;DHT22;2582;48.770;9.190;2023-04-23T09:12:25;18.90;99.90
5128;DHT22;2582;48.770;9.190;2023-04-23T09:14:51;18.80;99.90
5128;DHT22;2582;48.770;9.190;2023-04-23T09:17:20;19.00;99.90
5128;DHT22;2582;48.770;9.190;2023-04-23T09:19:48;19.20;99.90
5128;DHT22;2582;48.770;9.190;2023-04-23T09:22:14;19.20;99.90
5128;DHT22;2582;48.770;9.190;2023-04-23T09:24:43;19.40;99.90
5128;DHT22;2582;48.770;9.190;2023-04-23T09:27:09;19.30;99.90
5128;DHT22;2582;48.770;9.190;2023-04-23T09:29:34;19.30;99.30
5128;DHT22;2582;48.770;9.190;2023-04-23T09:32:09;19.40;99.80
5128;DHT22;2582;48.770;9.190;2023-04-23T09:34:36;19.40;99.90
5128;DHT22;2582;48.770;9.190;2023-04-23T09:37:02;19.40;99.50
5128;DHT22;2582;48.770;9.190;2023-04-23T09:39:29;19.30;99.10
5128;DHT22;2582;48.770;9.190;2023-04-23T09:42:02;19.50;99.60
5128;DHT22;2582;48.770;9.190;2023-04-23T09:44:30;19.50;98.90
5128;DHT22;2582;48.770;9.190;2023-04-23T09:47:05;19.40;98.50
5128;DHT22;2582;48.770;9.190;2023-04-23T09:49:31;19.50;98.40
5128;DHT22;2582;48.770;9.190;2023-04-23T09:52:05;19.60;98.10
5128;DHT22;2582;48.770;9.190;2023-04-23T09:54:31;19.40;97.90
5128;DHT22;2582;48.770;9.190;2023-04-23T09:56:58;19.50;98.50
5128;DHT22;2582;48.770;9.190;2023-04-23T09:59:28;19.70;98.30
5128;DHT22;2582;48.770;9.190;2023-04-23T10:01:55;19.90;97.60
5128;DHT22;2582;48.770;9.190;2023-04-23T10:04:24;19.70;96.90
5128;DHT22;2582;48.770;9.190;2023-04-23T10:06:53;19.70;97.10
5128;DHT22;2582;48.770;9.190;2023-04-23T10:09:20;19.80;97.80
5128;DHT22;2582;48.770;9.190;2023-04-23T10:11:51;19.60;97.50
5128;DHT22;2582;48.770;9.190;2023-04-23T10:14:18;19.80;97.10
5128;DHT22;2582;48.770;9.190;2023-04-23T10:16:46;20.20;98.50
5128;DHT22;2582;48.770;9.190;2023-04-23T10:19:13;20.30;96.90
5128;DHT22;2582;48.770;9.190;2023-04-23T10:21:40;20.10;97.00
5128;DHT22;2582;48.770;9.190;2023-04-23T10:24:09;19.90;97.50
5128;DHT22;2582;48.770;9.190;2023-04-23T10:26:41;19.80;97.80
5128;DHT22;2582;48.770;9.190;2023-04-23T10:29:13;19.90;98.10
5128;DHT22;2582;48.770;9.190;2023-04-23T10:31:43;20.20;97.70
5128;DHT22;2582;48.770;9.190;2023-04-23T10:34:10;20.50;97.80
5128;DHT22;2582;48.770;9.190;2023-04-23T10:36:37;20.70;98.30
5128;DHT22;2582;48.770;9.190;2023-04-23T10:39:03;20.90;97.00
5128;DHT22;2582;48.770;9.190;2023-04-23T10:41:37;20.90;96.40
5128;DHT22;2582;48.770;9.190;2023-04-23T10:44:04;21.10;95.80
5128;DHT22;2582;48.770;9.190;2023-04-23T10:46:32;21.50;95.60
5128;DHT22;2582;48.770;9.190;2023-04-23T10:51:35;21.20;94.70
5128;DHT22;2582;48.770;9.190;2023-04-23T10:54:03;21.30;94.10
5128;DHT22;2582;48.770;9.190;2023-04-23T10:56:29;21.90;93.80
5128;DHT22;2582;48.770;9.190;2023-04-23T10:58:55;22.20;92.80
5128;DHT22;2582;48.770;9.190;2023-04-23T11:01:24;22.70;92.10
5128;DHT22;2582;48.770;9.190;2023-04-23T11:03:51;23.80;90.60
5128;DHT22;2582;48.770;9.190;2023-04-23T11:14:47;23.70;83.70
5128;DHT22;2582;48.770;9.190;2023-04-23T11:17:15;24.30;83.70
5128;DHT22;2582;48.770;9.190;2023-04-23T11:19:41;24.00;83.50
5128;DHT22;2582;48.770;9.190;2023-04-23T11:22:33;23.30;84.90
5128;DHT22;2582;48.770;9.190;2023-04-23T11:25:00;23.20;87.00
5128;DHT22;2582;48.770;9.190;2023-04-23T11:27:28;23.10;87.20
5128;DHT22;2582;48.770;9.190;2023-04-23T11:29:54;22.40;86.80
5128;DHT22;2582;48.770;9.190;2023-04-23T11:32:21;21.80;88.60
5128;DHT22;2582;48.770;9.190;2023-04-23T11:34:47;21.40;89.30
5128;DHT22;2582;48.770;9.190;2023-04-23T11:37:15;21.70;91.10
5128;DHT22;2582;48.770;9.190;2023-04-23T11:39:42;22.10;90.90
5128;DHT22;2582;48.770;9.190;2023-04-23T11:42:09;23.20;89.20
5128;DHT22;2582;48.770;9.190;2023-04-23T11:44:37;23.30;86.10
5128;DHT22;2582;48.770;9.190;2023-04-23T11:47:02;23.10;85.70
5128;DHT22;2582;48.770;9.190;2023-04-23T11:49:28;23.50;85.40
5128;DHT22;2582;48.770;9.190;2023-04-23T11:51:53;24.50;85.40
5128;DHT22;2582;48.770;9.190;2023-04-23T11:54:24;25.70;82.90
5128;DHT22;2582;48.770;9.190;2023-04-23T11:56:52;26.80;80.70
5128;DHT22;2582;48.770;9.190;2023-04-23T11:59:18;26.60;74.70
5128;DHT22;2582;48.770;9.190;2023-04-23T12:01:49;25.40;75.90
5128;DHT22;2582;48.770;9.190;2023-04-23T12:04:18;24.60;80.40
5128;DHT22;2582;48.770;9.190;2023-04-23T12:06:45;23.90;79.20
5128;DHT22;2582;48.770;9.190;2023-04-23T12:09:12;24.40;79.40
5128;DHT22;2582;48.770;9.190;2023-04-23T12:11:43;24.70;78.70
5128;DHT22;2582;48.770;9.190;2023-04-23T12:14:10;26.50;74.80
5128;DHT22;2582;48.770;9.190;2023-04-23T12:16:44;26.30;73.80
5128;DHT22;2582;48.770;9.190;2023-04-23T12:19:15;25.60;76.30
5128;DHT22;2582;48.770;9.190;2023-04-23T12:21:55;25.60;78.10
5128;DHT22;2582;48.770;9.190;2023-04-23T12:24:22;24.60;77.40
5128;DHT22;2582;48.770;9.190;2023-04-23T12:26:53;23.50;80.40
5128;DHT22;2582;48.770;9.190;2023-04-23T12:29:20;22.80;81.10
5128;DHT22;2582;48.770;9.190;2023-04-23T12:31:46;22.70;83.20
5128;DHT22;2582;48.770;9.190;2023-04-23T12:34:13;22.50;82.60
5128;DHT22;2582;48.770;9.190;2023-04-23T12:36:44;23.80;81.70
5128;DHT22;2582;48.770;9.190;2023-04-23T12:39:27;25.20;80.10
5128;DHT22;2582;48.770;9.190;2023-04-23T12:44:21;28.10;71.90
5128;DHT22;2582;48.770;9.190;2023-04-23T12:46:54;29.30;66.90
5128;DHT22;2582;48.770;9.190;2023-04-23T12:49:20;30.40;61.70
5128;DHT22;2582;48.770;9.190;2023-04-23T12:51:46;29.70;60.10
5128;DHT22;2582;48.770;9.190;2023-04-23T12:54:12;27.10;65.50
5128;DHT22;2582;48.770;9.190;2023-04-23T12:56:37;26.20;70.40
5128;DHT22;2582;48.770;9.190;2023-04-23T12:59:03;26.60;69.40
5128;DHT22;2582;48.770;9.190;2023-04-23T13:01:30;27.50;66.70
5128;DHT22;2582;48.770;9.190;2023-04-23T13:03:56;29.10;65.10
5128;DHT22;2582;48.770;9.190;2023-04-23T13:06:21;29.90;60.90
5128;DHT22;2582;48.770;9.190;2023-04-23T13:08:47;30.10;62.80
5128;DHT22;2582;48.770;9.190;2023-04-23T13:11:12;30.50;58.40
5128;DHT22;2582;48.770;9.190;2023-04-23T13:13:38;30.50;58.10
5128;DHT22;2582;48.770;9.190;2023-04-23T13:16:04;29.60;59.00
5128;DHT22;2582;48.770;9.190;2023-04-23T13:18:29;29.10;58.90
5128;DHT22;2582;48.770;9.190;2023-04-23T13:20:55;29.00;59.70
5128;DHT22;2582;48.770;9.190;2023-04-23T13:23:21;29.80;58.80
5128;DHT22;2582;48.770;9.190;2023-04-23T13:25:47;30.20;58.60
5128;DHT22;2582;48.770;9.190;2023-04-23T13:28:12;30.30;58.20
5128;DHT22;2582;48.770;9.190;2023-04-23T13:30:39;30.50;55.00
5128;DHT22;2582;48.770;9.190;2023-04-23T13:33:04;30.30;54.90
5128;DHT22;2582;48.770;9.190;2023-04-23T13:35:30;29.30;55.80
5128;DHT22;2582;48.770;9.190;2023-04-23T13:37:55;29.30;54.50
5128;DHT22;2582;48.770;9.190;2023-04-23T13:40:21;29.70;53.20
5128;DHT22;2582;48.770;9.190;2023-04-23T13:42:46;28.90;52.90
5128;DHT22;2582;48.770;9.190;2023-04-23T13:45:14;28.50;55.30
5128;DHT22;2582;48.770;9.190;2023-04-23T13:47:40;28.60;55.80
5128;DHT22;2582;48.770;9.190;2023-04-23T13:50:06;28.70;54.70
5128;DHT22;2582;48.770;9.190;2023-04-23T13:52:32;29.10;55.10
5128;DHT22;2582;48.770;9.190;2023-04-23T13:54:58;29.80;53.10
5128;DHT22;2582;48.770;9.190;2023-04-23T13:57:27;30.30;50.70
5128;DHT22;2582;48.770;9.190;2023-04-23T13:59:52;30.30;49.30
5128;DHT22;2582;48.770;9.190;2023-04-23T14:02:20;29.80;51.20
5128;DHT22;2582;48.770;9.190;2023-04-23T14:04:46;28.70;51.00
5128;DHT22;2582;48.770;9.190;2023-04-23T14:07:11;28.00;52.50
5128;DHT22;2582;48.770;9.190;2023-04-23T14:09:37;29.20;52.30
5128;DHT22;2582;48.770;9.190;2023-04-23T14:12:03;28.90;52.30
5128;DHT22;2582;48.770;9.190;2023-04-23T14:14:29;27.80;53.40
5128;DHT22;2582;48.770;9.190;2023-04-23T14:16:55;27.00;55.00
5128;DHT22;2582;48.770;9.190;2023-04-23T14:19:20;27.40;54.40
5128;DHT22;2582;48.770;9.190;2023-04-23T14:21:46;27.70;54.00
5128;DHT22;2582;48.770;9.190;2023-04-23T14:24:22;27.30;53.20
5128;DHT22;2582;48.770;9.190;2023-04-23T14:26:49;26.60;52.70
5128;DHT22;2582;48.770;9.190;2023-04-23T14:29:23;26.90;53.90
5128;DHT22;2582;48.770;9.190;2023-04-23T14:31:52;27.50;51.90
5128;DHT22;2582;48.770;9.190;2023-04-23T14:34:17;28.90;50.90
5128;DHT22;2582;48.770;9.190;2023-04-23T14:36:43;29.30;49.90
5128;DHT22;2582;48.770;9.190;2023-04-23T14:39:10;28.40;50.00
5128;DHT22;2582;48.770;9.190;2023-04-23T14:41:36;27.90;50.30
5128;DHT22;2582;48.770;9.190;2023-04-23T14:44:02;27.40;51.90
5128;DHT22;2582;48.770;9.190;2023-04-23T14:46:28;26.10;53.40
5128;DHT22;2582;48.770;9.190;2023-04-23T14:48:54;25.10;55.00
5128;DHT22;2582;48.770;9.190;2023-04-23T14:51:20;25.00;57.20
5128;DHT22;2582;48.770;9.190;2023-04-23T14:53:45;24.70;56.20
5128;DHT22;2582;48.770;9.190;2023-04-23T14:56:11;24.50;56.60
5128;DHT22;2582;48.770;9.190;2023-04-23T14:58:36;24.50;58.30
5128;DHT22;2582;48.770;9.190;2023-04-23T15:01:03;24.20;56.90
5128;DHT22;2582;48.770;9.190;2023-04-23T15:03:28;24.00;59.70
5128;DHT22;2582;48.770;9.190;2023-04-23T15:05:54;23.80;60.90
5128;DHT22;2582;48.770;9.190;2023-04-23T15:08:20;23.50;57.70
5128;DHT22;2582;48.770;9.190;2023-04-23T15:10:45;23.60;59.90
5128;DHT22;2582;48.770;9.190;2023-04-23T15:15:50;22.80;60.50
5128;DHT22;2582;48.770;9.190;2023-04-23T15:18:19;23.20;62.90
5128;DHT22;2582;48.770;9.190;2023-04-23T15:20:45;23.40;60.60
5128;DHT22;2582;48.770;9.190;2023-04-23T15:23:10;23.40;60.70
5128;DHT22;2582;48.770;9.190;2023-04-23T15:25:36;23.30;60.80
5128;DHT22;2582;48.770;9.190;2023-04-23T15:28:03;23.40;60.60
5128;DHT22;2582;48.770;9.190;2023-04-23T15:30:30;23.10;59.30
5128;DHT22;2582;48.770;9.190;2023-04-23T15:32:56;23.00;60.20
5128;DHT22;2582;48.770;9.190;2023-04-23T15:35:22;22.90;61.20
5128;DHT22;2582;48.770;9.190;2023-04-23T15:37:48;22.80;60.30
5128;DHT22;2582;48.770;9.190;2023-04-23T15:40:14;22.90;61.50
5128;DHT22;2582;48.770;9.190;2023-04-23T15:42:40;23.00;61.90
5128;DHT22;2582;48.770;9.190;2023-04-23T15:45:08;22.50;67.30
5128;DHT22;2582;48.770;9.190;2023-04-23T15:47:33;22.10;70.70
5128;DHT22;2582;48.770;9.190;2023-04-23T15:49:59;21.20;74.90
5128;DHT22;2582;48.770;9.190;2023-04-23T15:52:26;20.50;81.00
5128;DHT22;2582;48.770;9.190;2023-04-23T15:54:51;20.10;90.30
5128;DHT22;2582;48.770;9.190;2023-04-23T15:57:17;19.90;92.40
5128;DHT22;2582;48.770;9.190;2023-04-23T15:59:42;19.80;93.30
5128;DHT22;2582;48.770;9.190;2023-04-23T16:02:08;20.00;93.50
5128;DHT22;2582;48.770;9.190;2023-04-23T16:04:33;19.90;94.20
5128;DHT22;2582;48.770;9.190;2023-04-23T16:06:59;19.90;95.00
5128;DHT22;2582;48.770;9.190;2023-04-23T16:09:25;19.90;96.40
5128;DHT22;2582;48.770;9.190;2023-04-23T16:11:51;19.80;97.70
5128;DHT22;2582;48.770;9.190;2023-04-23T16:14:18;19.70;98.80